sensor_id;sensor_type;location;lat;lon;timestamp;pressure;altitude;pressure_sealevel;temperature;humidity
29903;BME280;30288;50.514;9.678;2023-04-21T00:00:11;98433.91;;;8.64;100.00
29903;BME280;30288;50.514;9.678;2023-04-21T00:02:17;98426.41;;;8.63;100.00
29903;BME280;30288;50.514;9.678;2023-04-21T00:04:23;98429.75;;;8.63;100.00
29903;BME280;30288;50.514;9.678;2023-04-21T00:06:28;98429.78;;;8.62;100.00
29903;BME280;30288;50.514;9.678;2023-04-21T00:08:36;98429.66;;;8.66;100.00
29903;BME280;30288;50.514;9.678;2023-04-21T00:10:42;98432.91;;;8.70;100.00
29903;BME280;30288;50.514;9.678;2023-04-21T00:12:48;98431.22;;;8.70;100.00
29903;BME280;30288;50.514;9.678;2023-04-21T00:14:53;98433.81;;;8.67;100.00
29903;BME280;30288;50.514;9.678;2023-04-21T00:16:58;98427.97;;;8.67;100.00
29903;BME280;30288;50.514;9.678;2023-04-21T00:19:03;98423.81;;;8.66;100.00
29903;BME280;30288;50.514;9.678;2023-04-21T00:21:09;98427.22;;;8.63;100.00
29903;BME280;30288;50.514;9.678;2023-04-21T00:23:14;98427.28;;;8.60;100.00
29903;BME280;30288;50.514;9.678;2023-04-21T00:25:23;98421.47;;;8.60;100.00
29903;BME280;30288;50.514;9.678;2023-04-21T00:27:28;98431.56;;;8.57;100.00
29903;BME280;30288;50.514;9.678;2023-04-21T00:29:33;98422.34;;;8.57;100.00
29903;BME280;30288;50.514;9.678;2023-04-21T00:31:38;98422.34;;;8.57;100.00
29903;BME280;30288;50.514;9.678;2023-04-21T00:33:43;98428.13;;;8.61;100.00
29903;BME280;30288;50.514;9.678;2023-04-21T00:35:48;98427.38;;;8.57;100.00
29903;BME280;30288;50.514;9.678;2023-04-21T00:37:56;98424.88;;;8.57;100.00
29903;BME280;30288;50.514;9.678;2023-04-21T00:40:01;98420.69;;;8.56;100.00
29903;BME280;30288;50.514;9.678;2023-04-21T00:42:09;98429.91;;;8.56;100.00
29903;BME280;30288;50.514;9.678;2023-04-21T00:44:14;98425.72;;;8.56;100.00
29903;BME280;30288;50.514;9.678;2023-04-21T00:46:19;98431.63;;;8.55;100.00
29903;BME280;30288;50.514;9.678;2023-04-21T00:48:24;98419.94;;;8.54;100.00
29903;BME280;30288;50.514;9.678;2023-04-21T00:50:30;98426.63;;;8.54;100.00
29903;BME280;30288;50.514;9.678;2023-04-21T00:52:36;98419.69;;;8.63;100.00
29903;BME280;30288;50.514;9.678;2023-04-21T00:54:43;98421.59;;;8.55;100.00
29903;BME280;30288;50.514;9.678;2023-04-21T00:56:49;98432.41;;;8.57;100.00
29903;BME280;30288;50.514;9.678;2023-04-21T00:58:58;98437.41;;;8.57;100.00
29903;BME280;30288;50.514;9.678;2023-04-21T01:01:04;98434.94;;;8.56;100.00
29903;BME280;30288;50.514;9.678;2023-04-21T01:03:10;98434.13;;;8.55;100.00
29903;BME280;30288;50.514;9.678;2023-04-21T01:05:16;98435.97;;;8.47;100.00
29903;BME280;30288;50.514;9.678;2023-04-21T01:07:23;98427.50;;;8.53;100.00
29903;BME280;30288;50.514;9.678;2023-04-21T01:09:30;98430.81;;;8.53;100.00
29903;BME280;30288;50.514;9.678;2023-04-21T01:11:38;98416.63;;;8.52;100.00
29903;BME280;30288;50.514;9.678;2023-04-21T01:13:43;98415.84;;;8.50;100.00
29903;BME280;30288;50.514;9.678;2023-04-21T01:15:51;98421.72;;;8.49;100.00
29903;BME280;30288;50.514;9.678;2023-04-21T01:17:56;98418.38;;;8.49;100.00
29903;BME280;30288;50.514;9.678;2023-04-21T01:20:08;98413.38;;;8.49;100.00
29903;BME280;30288;50.514;9.678;2023-04-21T01:22:16;98415.09;;;8.47;100.00
29903;BME280;30288;50.514;9.678;2023-04-21T01:24:22;98418.47;;;8.46;100.00
29903;BME280;30288;50.514;9.678;2023-04-21T01:26:28;98420.16;;;8.45;100.00
29903;BME280;30288;50.514;9.678;2023-04-21T01:28:33;98407.59;;;8.45;100.00
29903;BME280;30288;50.514;9.678;2023-04-21T01:30:39;98405.41;;;8.65;100.00
29903;BME280;30288;50.514;9.678;2023-04-21T01:32:44;98407.19;;;8.60;100.00
29903;BME280;30288;50.514;9.678;2023-04-21T01:34:49;98409.59;;;8.65;100.00
29903;BME280;30288;50.514;9.678;2023-04-21T01:36:55;98408.94;;;8.58;100.00
29903;BME280;30288;50.514;9.678;2023-04-21T01:39:03;98407.38;;;8.54;100.00
29903;BME280;30288;50.514;9.678;2023-04-21T01:41:09;98405.00;;;8.50;100.00
29903;BME280;30288;50.514;9.678;2023-04-21T01:43:15;98412.63;;;8.45;100.00
29903;BME280;30288;50.514;9.678;2023-04-21T01:45:20;98412.69;;;8.42;100.00
29903;BME280;30288;50.514;9.678;2023-04-21T01:47:26;98416.88;;;8.42;100.00
29903;BME280;30288;50.514;9.678;2023-04-21T01:49:31;98416.94;;;8.40;100.00
29903;BME280;30288;50.514;9.678;2023-04-21T01:51:36;98412.84;;;8.36;100.00
29903;BME280;30288;50.514;9.678;2023-04-21T01:53:42;98414.56;;;8.34;100.00
29903;BME280;30288;50.514;9.678;2023-04-21T01:55:49;98413.00;;;8.27;100.00
29903;BME280;30288;50.514;9.678;2023-04-21T01:57:55;98407.31;;;8.22;100.00
29903;BME280;30288;50.514;9.678;2023-04-21T02:00:01;98399.00;;;8.18;100.00
29903;BME280;30288;50.514;9.678;2023-04-21T02:02:15;98405.00;;;8.13;100.00
29903;BME280;30288;50.514;9.678;2023-04-21T02:04:21;98410.19;;;8.07;100.00
29903;BME280;30288;50.514;9.678;2023-04-21T02:06:26;98417.03;;;7.99;100.00
29903;BME280;30288;50.514;9.678;2023-04-21T02:08:33;98418.81;;;7.93;100.00
29903;BME280;30288;50.514;9.678;2023-04-21T02:10:38;98410.59;;;7.88;100.00
29903;BME280;30288;50.514;9.678;2023-04-21T02:12:49;98416.47;;;7.87;100.00
29903;BME280;30288;50.514;9.678;2023-04-21T02:14:54;98412.38;;;7.83;100.00
29903;BME280;30288;50.514;9.678;2023-04-21T02:16:59;98406.75;;;7.72;100.00
29903;BME280;30288;50.514;9.678;2023-04-21T02:19:05;98413.53;;;7.69;100.00
29903;BME280;30288;50.514;9.678;2023-04-21T02:21:10;98410.97;;;7.70;100.00
29903;BME280;30288;50.514;9.678;2023-04-21T02:23:16;98407.75;;;7.65;100.00
29903;BME280;30288;50.514;9.678;2023-04-21T02:25:22;98413.78;;;7.57;100.00
29903;BME280;30288;50.514;9.678;2023-04-21T02:27:27;98411.31;;;7.55;100.00
29903;BME280;30288;50.514;9.678;2023-04-21T02:29:36;98409.66;;;7.54;100.00
29903;BME280;30288;50.514;9.678;2023-04-21T02:31:42;98405.69;;;7.45;100.00
29903;BME280;30288;50.514;9.678;2023-04-21T02:34:04;98413.41;;;7.35;100.00
29903;BME280;30288;50.514;9.678;2023-04-21T02:36:12;98412.56;;;7.34;100.00
29903;BME280;30288;50.514;9.678;2023-04-21T02:38:17;98408.50;;;7.29;100.00
29903;BME280;30288;50.514;9.678;2023-04-21T02:40:23;98416.13;;;7.24;100.00
29903;BME280;30288;50.514;9.678;2023-04-21T02:42:28;98414.44;;;7.25;100.00
29903;BME280;30288;50.514;9.678;2023-04-21T02:44:36;98413.59;;;7.26;100.00
29903;BME280;30288;50.514;9.678;2023-04-21T02:46:41;98410.28;;;7.24;100.00
29903;BME280;30288;50.514;9.678;2023-04-21T02:48:48;98402.03;;;7.19;100.00
29903;BME280;30288;50.514;9.678;2023-04-21T02:50:53;98401.38;;;7.11;100.00
29903;BME280;30288;50.514;9.678;2023-04-21T02:52:58;98400.69;;;7.02;100.00
29903;BME280;30288;50.514;9.678;2023-04-21T02:55:05;98399.91;;;6.99;100.00
29903;BME280;30288;50.514;9.678;2023-04-21T02:57:10;98406.66;;;6.95;100.00
29903;BME280;30288;50.514;9.678;2023-04-21T02:59:15;98410.09;;;6.90;100.00
29903;BME280;30288;50.514;9.678;2023-04-21T03:01:24;98412.56;;;6.91;100.00
29903;BME280;30288;50.514;9.678;2023-04-21T03:03:30;98419.25;;;6.92;100.00
29903;BME280;30288;50.514;9.678;2023-04-21T03:05:36;98423.41;;;6.93;100.00
29903;BME280;30288;50.514;9.678;2023-04-21T03:07:41;98413.38;;;6.93;100.00
29903;BME280;30288;50.514;9.678;2023-04-21T03:09:46;98425.78;;;6.99;100.00
29903;BME280;30288;50.514;9.678;2023-04-21T03:11:52;98417.47;;;6.97;100.00
29903;BME280;30288;50.514;9.678;2023-04-21T03:13:57;98413.94;;;7.08;100.00
29903;BME280;30288;50.514;9.678;2023-04-21T03:16:03;98418.97;;;7.08;100.00
29903;BME280;30288;50.514;9.678;2023-04-21T03:18:12;98413.81;;;7.14;100.00
29903;BME280;30288;50.514;9.678;2023-04-21T03:20:17;98411.31;;;7.14;100.00
29903;BME280;30288;50.514;9.678;2023-04-21T03:22:22;98415.41;;;7.18;100.00
29903;BME280;30288;50.514;9.678;2023-04-21T03:24:27;98406.13;;;7.23;100.00
29903;BME280;30288;50.514;9.678;2023-04-21T03:26:33;98415.25;;;7.27;100.00
29903;BME280;30288;50.514;9.678;2023-04-21T03:28:38;98412.56;;;7.34;100.00
29903;BME280;30288;50.514;9.678;2023-04-21T03:30:44;98413.94;;;7.49;100.00
29903;BME280;30288;50.514;9.678;2023-04-21T03:32:49;98409.59;;;7.57;100.00
29903;BME280;30288;50.514;9.678;2023-04-21T03:34:57;98409.59;;;7.57;100.00
29903;BME280;30288;50.514;9.678;2023-04-21T03:37:02;98403.81;;;7.55;100.00
29903;BME280;30288;50.514;9.678;2023-04-21T03:39:08;98414.50;;;7.62;100.00
29903;BME280;30288;50.514;9.678;2023-04-21T03:41:22;98411.78;;;7.72;100.00
29903;BME280;30288;50.514;9.678;2023-04-21T03:43:27;98412.59;;;7.74;100.00
29903;BME280;30288;50.514;9.678;2023-04-21T03:45:34;98418.38;;;7.76;100.00
29903;BME280;30288;50.514;9.678;2023-04-21T03:47:40;98414.16;;;7.78;100.00
29903;BME280;30288;50.514;9.678;2023-04-21T03:49:45;98416.72;;;7.75;100.00
29903;BME280;30288;50.514;9.678;2023-04-21T03:51:52;98420.94;;;7.73;100.00
29903;BME280;30288;50.514;9.678;2023-04-21T03:53:57;98419.28;;;7.74;100.00
29903;BME280;30288;50.514;9.678;2023-04-21T03:56:04;98420.88;;;7.76;100.00
29903;BME280;30288;50.514;9.678;2023-04-21T03:58:09;98423.34;;;7.78;100.00
29903;BME280;30288;50.514;9.678;2023-04-21T04:00:15;98420.75;;;7.82;100.00
29903;BME280;30288;50.514;9.678;2023-04-21T04:02:20;98423.88;;;7.92;100.00
29903;BME280;30288;50.514;9.678;2023-04-21T04:04:25;98417.22;;;7.89;100.00
29903;BME280;30288;50.514;9.678;2023-04-21T04:06:30;98422.25;;;7.89;100.00
29903;BME280;30288;50.514;9.678;2023-04-21T04:08:39;98415.53;;;7.91;100.00
29903;BME280;30288;50.514;9.678;2023-04-21T04:10:44;98412.22;;;7.89;100.00
29903;BME280;30288;50.514;9.678;2023-04-21T04:12:49;98423.03;;;7.93;100.00
29903;BME280;30288;50.514;9.678;2023-04-21T04:14:56;98418.00;;;7.93;100.00
29903;BME280;30288;50.514;9.678;2023-04-21T04:17:01;98415.44;;;7.95;100.00
29903;BME280;30288;50.514;9.678;2023-04-21T04:19:06;98412.91;;;7.96;100.00
29903;BME280;30288;50.514;9.678;2023-04-21T04:21:12;98416.22;;;7.98;100.00
29903;BME280;30288;50.514;9.678;2023-04-21T04:23:17;98414.88;;;8.20;100.00
29903;BME280;30288;50.514;9.678;2023-04-21T04:25:25;98419.91;;;8.19;100.00
29903;BME280;30288;50.514;9.678;2023-04-21T04:27:30;98421.56;;;8.20;100.00
29903;BME280;30288;50.514;9.678;2023-04-21T04:29:35;98420.00;;;8.16;100.00
29903;BME280;30288;50.514;9.678;2023-04-21T04:31:40;98415.03;;;8.13;100.00
29903;BME280;30288;50.514;9.678;2023-04-21T04:33:46;98417.41;;;8.19;100.00
29903;BME280;30288;50.514;9.678;2023-04-21T04:35:53;98423.31;;;8.16;100.00
29903;BME280;30288;50.514;9.678;2023-04-21T04:37:59;98418.03;;;8.27;100.00
29903;BME280;30288;50.514;9.678;2023-04-21T04:40:07;98418.03;;;8.27;100.00
29903;BME280;30288;50.514;9.678;2023-04-21T04:42:16;98416.47;;;8.23;100.00
29903;BME280;30288;50.514;9.678;2023-04-21T04:44:22;98418.13;;;8.24;100.00
29903;BME280;30288;50.514;9.678;2023-04-21T04:46:27;98411.53;;;8.20;100.00
29903;BME280;30288;50.514;9.678;2023-04-21T04:48:32;98413.97;;;8.23;100.00
29903;BME280;30288;50.514;9.678;2023-04-21T04:50:37;98408.09;;;8.24;100.00
29903;BME280;30288;50.514;9.678;2023-04-21T04:52:42;98414.75;;;8.25;100.00
29903;BME280;30288;50.514;9.678;2023-04-21T04:54:48;98423.06;;;8.27;100.00
29903;BME280;30288;50.514;9.678;2023-04-21T04:56:53;98412.16;;;8.28;100.00
29903;BME280;30288;50.514;9.678;2023-04-21T04:59:01;98422.09;;;8.34;100.00
29903;BME280;30288;50.514;9.678;2023-04-21T05:01:16;98426.25;;;8.35;100.00
29903;BME280;30288;50.514;9.678;2023-04-21T05:03:21;98422.13;;;8.32;100.00
29903;BME280;30288;50.514;9.678;2023-04-21T05:05:27;98422.13;;;8.32;100.00
29903;BME280;30288;50.514;9.678;2023-04-21T05:07:32;98424.69;;;8.31;100.00
29903;BME280;30288;50.514;9.678;2023-04-21T05:09:37;98426.25;;;8.35;100.00
29903;BME280;30288;50.514;9.678;2023-04-21T05:11:42;98424.47;;;8.40;100.00
29903;BME280;30288;50.514;9.678;2023-04-21T05:13:47;98420.16;;;8.45;100.00
29903;BME280;30288;50.514;9.678;2023-04-21T05:15:59;98425.13;;;8.47;100.00
29903;BME280;30288;50.514;9.678;2023-04-21T05:18:05;98430.81;;;8.53;100.00
29903;BME280;30288;50.514;9.678;2023-04-21T05:20:11;98421.66;;;8.51;100.00
29903;BME280;30288;50.514;9.678;2023-04-21T05:22:16;98430.91;;;8.50;100.00
29903;BME280;30288;50.514;9.678;2023-04-21T05:24:21;98428.34;;;8.52;100.00
29903;BME280;30288;50.514;9.678;2023-04-21T05:26:27;98425.81;;;8.53;100.00
29903;BME280;30288;50.514;9.678;2023-04-21T05:28:33;98432.41;;;8.57;100.00
29903;BME280;30288;50.514;9.678;2023-04-21T05:30:38;98433.09;;;8.62;100.00
29903;BME280;30288;50.514;9.678;2023-04-21T05:32:46;98424.78;;;8.60;100.00
29903;BME280;30288;50.514;9.678;2023-04-21T05:34:52;98429.47;;;8.74;100.00
29903;BME280;30288;50.514;9.678;2023-04-21T05:36:57;98433.19;;;8.92;100.00
29903;BME280;30288;50.514;9.678;2023-04-21T05:39:02;98431.44;;;8.94;100.00
29903;BME280;30288;50.514;9.678;2023-04-21T05:41:07;98435.00;;;8.87;100.00
29903;BME280;30288;50.514;9.678;2023-04-21T05:43:13;98431.78;;;8.82;100.00
29903;BME280;30288;50.514;9.678;2023-04-21T05:45:18;98432.72;;;8.77;100.00
29903;BME280;30288;50.514;9.678;2023-04-21T05:47:23;98432.63;;;8.81;100.00
29903;BME280;30288;50.514;9.678;2023-04-21T05:49:31;98436.47;;;8.94;100.00
29903;BME280;30288;50.514;9.678;2023-04-21T05:51:36;98442.91;;;9.04;100.00
29903;BME280;30288;50.514;9.678;2023-04-21T05:53:44;98439.63;;;9.02;100.00
29903;BME280;30288;50.514;9.678;2023-04-21T05:55:50;98441.44;;;8.97;100.00
29903;BME280;30288;50.514;9.678;2023-04-21T05:57:55;98438.47;;;9.13;100.00
29903;BME280;30288;50.514;9.678;2023-04-21T06:00:00;98439.13;;;9.20;100.00
29903;BME280;30288;50.514;9.678;2023-04-21T06:02:06;98437.38;;;9.22;100.00
29903;BME280;30288;50.514;9.678;2023-04-21T06:04:12;98435.31;;;9.36;100.00
29903;BME280;30288;50.514;9.678;2023-04-21T06:06:20;98439.31;;;9.43;100.00
29903;BME280;30288;50.514;9.678;2023-04-21T06:08:25;98431.78;;;9.43;100.00
29903;BME280;30288;50.514;9.678;2023-04-21T06:10:30;98436.44;;;9.55;100.00
29903;BME280;30288;50.514;9.678;2023-04-21T06:12:36;98433.50;;;9.71;100.00
29903;BME280;30288;50.514;9.678;2023-04-21T06:14:41;98432.19;;;9.87;100.00
29903;BME280;30288;50.514;9.678;2023-04-21T06:16:46;98434.69;;;9.87;100.00
29903;BME280;30288;50.514;9.678;2023-04-21T06:18:52;98431.63;;;10.05;100.00
29903;BME280;30288;50.514;9.678;2023-04-21T06:20:57;98422.94;;;10.15;100.00
29903;BME280;30288;50.514;9.678;2023-04-21T06:23:04;98420.84;;;10.29;100.00
29903;BME280;30288;50.514;9.678;2023-04-21T06:25:10;98415.75;;;10.31;100.00
29903;BME280;30288;50.514;9.678;2023-04-21T06:27:15;98418.66;;;10.45;100.00
29903;BME280;30288;50.514;9.678;2023-04-21T06:29:21;98413.34;;;10.52;100.00
29903;BME280;30288;50.514;9.678;2023-04-21T06:31:26;98413.88;;;10.87;100.00
29903;BME280;30288;50.514;9.678;2023-04-21T06:33:32;98415.22;;;10.97;100.00
29903;BME280;30288;50.514;9.678;2023-04-21T06:35:37;98415.22;;;10.97;100.00
29903;BME280;30288;50.514;9.678;2023-04-21T06:37:42;98415.56;;;11.11;100.00
29903;BME280;30288;50.514;9.678;2023-04-21T06:39:50;98414.66;;;11.12;100.00
29903;BME280;30288;50.514;9.678;2023-04-21T06:41:55;98418.28;;;11.05;100.00
29903;BME280;30288;50.514;9.678;2023-04-21T06:44:01;98408.00;;;11.11;100.00
29903;BME280;30288;50.514;9.678;2023-04-21T06:46:06;98408.75;;;11.36;100.00
29903;BME280;30288;50.514;9.678;2023-04-21T06:48:12;98411.91;;;11.41;100.00
29903;BME280;30288;50.514;9.678;2023-04-21T06:50:18;98410.84;;;11.25;100.00
29903;BME280;30288;50.514;9.678;2023-04-21T06:52:23;98409.84;;;11.53;100.00
29903;BME280;30288;50.514;9.678;2023-04-21T06:54:28;98411.50;;;11.54;100.00
29903;BME280;30288;50.514;9.678;2023-04-21T06:56:35;98416.88;;;11.45;100.00
29903;BME280;30288;50.514;9.678;2023-04-21T06:58:42;98424.81;;;11.57;100.00
29903;BME280;30288;50.514;9.678;2023-04-21T07:00:48;98422.88;;;11.64;100.00
29903;BME280;30288;50.514;9.678;2023-04-21T07:02:53;98422.63;;;11.70;100.00
29903;BME280;30288;50.514;9.678;2023-04-21T07:04:58;98420.88;;;11.72;100.00
29903;BME280;30288;50.514;9.678;2023-04-21T07:07:03;98422.41;;;11.54;100.00
29903;BME280;30288;50.514;9.678;2023-04-21T07:09:08;98420.56;;;11.81;100.00
29903;BME280;30288;50.514;9.678;2023-04-21T07:11:13;98415.53;;;11.81;100.00
29903;BME280;30288;50.514;9.678;2023-04-21T07:13:21;98410.00;;;11.93;100.00
29903;BME280;30288;50.514;9.678;2023-04-21T07:15:26;98407.84;;;11.84;100.00
29903;BME280;30288;50.514;9.678;2023-04-21T07:17:31;98408.59;;;11.86;100.00
29903;BME280;30288;50.514;9.678;2023-04-21T07:19:37;98411.06;;;12.09;100.00
29903;BME280;30288;50.514;9.678;2023-04-21T07:21:42;98411.03;;;12.51;100.00
29903;BME280;30288;50.514;9.678;2023-04-21T07:23:47;98408.66;;;12.48;100.00
29903;BME280;30288;50.514;9.678;2023-04-21T07:25:52;98407.88;;;12.46;100.00
29903;BME280;30288;50.514;9.678;2023-04-21T07:27:57;98413.25;;;12.39;100.00
29903;BME280;30288;50.514;9.678;2023-04-21T07:30:08;98406.31;;;12.44;100.00
29903;BME280;30288;50.514;9.678;2023-04-21T07:32:13;98408.09;;;12.82;100.00
29903;BME280;30288;50.514;9.678;2023-04-21T07:34:18;98403.91;;;13.01;100.00
29903;BME280;30288;50.514;9.678;2023-04-21T07:36:23;98408.31;;;12.96;100.00
29903;BME280;30288;50.514;9.678;2023-04-21T07:38:32;98405.41;;;13.05;100.00
29903;BME280;30288;50.514;9.678;2023-04-21T07:40:37;98402.88;;;13.26;100.00
29903;BME280;30288;50.514;9.678;2023-04-21T07:42:42;98402.56;;;13.69;100.00
29903;BME280;30288;50.514;9.678;2023-04-21T07:44:47;98396.66;;;13.87;100.00
29903;BME280;30288;50.514;9.678;2023-04-21T07:46:55;98397.91;;;14.15;100.00
29903;BME280;30288;50.514;9.678;2023-04-21T07:49:00;98397.91;;;14.32;100.00
29903;BME280;30288;50.514;9.678;2023-04-21T07:51:05;98395.56;;;14.63;100.00
29903;BME280;30288;50.514;9.678;2023-04-21T07:53:10;98398.94;;;14.79;100.00
29903;BME280;30288;50.514;9.678;2023-04-21T07:55:15;98394.28;;;15.05;100.00
29903;BME280;30288;50.514;9.678;2023-04-21T07:57:21;98389.41;;;15.33;100.00
29903;BME280;30288;50.514;9.678;2023-04-21T07:59:26;98403.28;;;15.74;100.00
29903;BME280;30288;50.514;9.678;2023-04-21T08:01:31;98398.59;;;15.83;100.00
29903;BME280;30288;50.514;9.678;2023-04-21T08:03:39;98388.50;;;15.97;100.00
29903;BME280;30288;50.514;9.678;2023-04-21T08:05:44;98392.66;;;16.13;100.00
29903;BME280;30288;50.514;9.678;2023-04-21T08:07:49;98385.56;;;16.34;100.00
29903;BME280;30288;50.514;9.678;2023-04-21T08:09:54;98383.56;;;16.83;100.00
29903;BME280;30288;50.514;9.678;2023-04-21T08:12:00;98379.66;;;16.78;100.00
29903;BME280;30288;50.514;9.678;2023-04-21T08:14:05;98377.56;;;17.27;100.00
29903;BME280;30288;50.514;9.678;2023-04-21T08:16:11;98370.72;;;17.41;100.00
29903;BME280;30288;50.514;9.678;2023-04-21T08:18:16;98370.19;;;17.36;100.00
29903;BME280;30288;50.514;9.678;2023-04-21T08:20:26;98370.72;;;17.41;100.00
29903;BME280;30288;50.514;9.678;2023-04-21T08:22:31;98382.59;;;17.55;100.00
29903;BME280;30288;50.514;9.678;2023-04-21T08:24:37;98366.44;;;17.83;100.00
29903;BME280;30288;50.514;9.678;2023-04-21T08:26:43;98361.47;;;18.33;100.00
29903;BME280;30288;50.514;9.678;2023-04-21T08:28:48;98364.72;;;18.35;100.00
29903;BME280;30288;50.514;9.678;2023-04-21T08:30:54;98355.50;;;18.60;100.00
29903;BME280;30288;50.514;9.678;2023-04-21T08:32:59;98348.22;;;18.92;100.00
29903;BME280;30288;50.514;9.678;2023-04-21T08:35:06;98347.00;;;18.97;100.00
29903;BME280;30288;50.514;9.678;2023-04-21T08:37:14;98351.09;;;18.87;100.00
29903;BME280;30288;50.514;9.678;2023-04-21T08:39:19;98354.47;;;19.00;100.00
29903;BME280;30288;50.514;9.678;2023-04-21T08:41:25;98351.38;;;18.45;100.00
29903;BME280;30288;50.514;9.678;2023-04-21T08:43:30;98342.44;;;18.64;100.00
29903;BME280;30288;50.514;9.678;2023-04-21T08:45:35;98353.75;;;18.73;100.00
29903;BME280;30288;50.514;9.678;2023-04-21T08:47:41;98349.66;;;18.83;100.00
29903;BME280;30288;50.514;9.678;2023-04-21T08:49:47;98363.94;;;18.98;100.00
29903;BME280;30288;50.514;9.678;2023-04-21T08:51:55;98358.16;;;19.33;100.00
29903;BME280;30288;50.514;9.678;2023-04-21T08:54:03;98349.66;;;19.08;100.00
29903;BME280;30288;50.514;9.678;2023-04-21T08:56:09;98356.78;;;19.03;100.00
29903;BME280;30288;50.514;9.678;2023-04-21T08:58:14;98353.69;;;19.23;100.00
29903;BME280;30288;50.514;9.678;2023-04-21T09:00:20;98355.28;;;19.37;100.00
29903;BME280;30288;50.514;9.678;2023-04-21T09:02:25;98357.16;;;19.22;100.00
29903;BME280;30288;50.514;9.678;2023-04-21T09:04:32;98354.59;;;19.48;100.00
29903;BME280;30288;50.514;9.678;2023-04-21T09:06:40;98357.31;;;19.81;100.00
29903;BME280;30288;50.514;9.678;2023-04-21T09:08:53;98350.25;;;19.61;100.00
29903;BME280;30288;50.514;9.678;2023-04-21T09:11:01;98355.53;;;19.21;100.00
29903;BME280;30288;50.514;9.678;2023-04-21T09:13:07;98360.53;;;19.10;100.00
29903;BME280;30288;50.514;9.678;2023-04-21T09:15:12;98359.00;;;19.20;100.00
29903;BME280;30288;50.514;9.678;2023-04-21T09:17:20;98347.72;;;19.36;100.00
29903;BME280;30288;50.514;9.678;2023-04-21T09:19:26;98340.06;;;19.72;100.00
29903;BME280;30288;50.514;9.678;2023-04-21T09:21:31;98340.50;;;19.90;100.00
29903;BME280;30288;50.514;9.678;2023-04-21T09:23:44;98336.47;;;19.98;100.00
29903;BME280;30288;50.514;9.678;2023-04-21T09:25:50;98336.16;;;19.55;100.00
29903;BME280;30288;50.514;9.678;2023-04-21T09:27:59;98334.34;;;19.45;100.00
29903;BME280;30288;50.514;9.678;2023-04-21T09:30:07;98338.63;;;18.83;100.00
29903;BME280;30288;50.514;9.678;2023-04-21T09:32:16;98336.38;;;19.03;100.00
29903;BME280;30288;50.514;9.678;2023-04-21T09:34:24;98334.47;;;19.67;100.00
29903;BME280;30288;50.514;9.678;2023-04-21T09:36:30;98338.97;;;19.87;100.00
29903;BME280;30288;50.514;9.678;2023-04-21T09:38:36;98334.91;;;19.96;100.00
29903;BME280;30288;50.514;9.678;2023-04-21T09:40:41;98338.88;;;19.65;100.00
29903;BME280;30288;50.514;9.678;2023-04-21T09:42:46;98334.03;;;19.37;100.00
29903;BME280;30288;50.514;9.678;2023-04-21T09:44:54;98332.88;;;19.17;100.00
29903;BME280;30288;50.514;9.678;2023-04-21T09:47:19;98332.13;;;19.64;100.00
29903;BME280;30288;50.514;9.678;2023-04-21T09:49:29;98323.72;;;19.38;100.00
29903;BME280;30288;50.514;9.678;2023-04-21T09:51:35;98327.38;;;19.10;100.00
29903;BME280;30288;50.514;9.678;2023-04-21T09:54:10;98331.69;;;19.10;100.00
29903;BME280;30288;50.514;9.678;2023-04-21T09:56:32;98332.81;;;18.93;100.00
29903;BME280;30288;50.514;9.678;2023-04-21T09:58:45;98325.38;;;18.90;100.00
29903;BME280;30288;50.514;9.678;2023-04-21T10:00:55;98335.38;;;18.68;100.00
29903;BME280;30288;50.514;9.678;2023-04-21T10:03:04;98333.66;;;18.81;100.00
29903;BME280;30288;50.514;9.678;2023-04-21T10:05:13;98335.56;;;19.03;100.00
29903;BME280;30288;50.514;9.678;2023-04-21T10:07:18;98327.13;;;18.90;100.00
29903;BME280;30288;50.514;9.678;2023-04-21T10:09:25;98325.28;;;18.79;100.00
29903;BME280;30288;50.514;9.678;2023-04-21T10:11:31;98324.41;;;19.16;100.00
29903;BME280;30288;50.514;9.678;2023-04-21T10:13:37;98321.88;;;19.88;100.00
29903;BME280;30288;50.514;9.678;2023-04-21T10:15:43;98310.06;;;19.98;100.00
29903;BME280;30288;50.514;9.678;2023-04-21T10:17:51;98309.28;;;20.08;100.00
29903;BME280;30288;50.514;9.678;2023-04-21T10:19:57;98303.75;;;20.26;100.00
29903;BME280;30288;50.514;9.678;2023-04-21T10:22:02;98303.59;;;20.73;100.00
29903;BME280;30288;50.514;9.678;2023-04-21T10:24:13;98304.28;;;20.75;100.00
29903;BME280;30288;50.514;9.678;2023-04-21T10:26:20;98307.53;;;20.77;100.00
29903;BME280;30288;50.514;9.678;2023-04-21T10:28:46;98304.97;;;21.00;100.00
29903;BME280;30288;50.514;9.678;2023-04-21T10:31:27;98298.22;;;20.54;100.00
29903;BME280;30288;50.514;9.678;2023-04-21T10:33:38;98305.91;;;20.87;100.00
29903;BME280;30288;50.514;9.678;2023-04-21T10:35:58;98307.31;;;20.69;100.00
29903;BME280;30288;50.514;9.678;2023-04-21T10:38:06;98304.28;;;20.07;100.00
29903;BME280;30288;50.514;9.678;2023-04-21T10:40:35;98297.94;;;19.54;100.00
29903;BME280;30288;50.514;9.678;2023-04-21T10:42:43;98303.63;;;19.34;100.00
29903;BME280;30288;50.514;9.678;2023-04-21T10:45:01;98303.28;;;19.14;100.00
29903;BME280;30288;50.514;9.678;2023-04-21T10:47:09;98299.63;;;18.93;100.00
29903;BME280;30288;50.514;9.678;2023-04-21T10:49:24;98304.34;;;18.99;100.00
29903;BME280;30288;50.514;9.678;2023-04-21T10:51:31;98294.03;;;19.24;100.00
29903;BME280;30288;50.514;9.678;2023-04-21T10:53:42;98289.28;;;19.44;100.00
29903;BME280;30288;50.514;9.678;2023-04-21T10:55:48;98296.78;;;19.58;100.00
29903;BME280;30288;50.514;9.678;2023-04-21T10:57:53;98293.28;;;19.35;100.00
29903;BME280;30288;50.514;9.678;2023-04-21T11:00:00;98293.31;;;19.59;100.00
29903;BME280;30288;50.514;9.678;2023-04-21T11:02:11;98289.72;;;19.85;100.00
29903;BME280;30288;50.514;9.678;2023-04-21T11:04:18;98295.00;;;19.71;100.00
29903;BME280;30288;50.514;9.678;2023-04-21T11:06:27;98282.91;;;19.62;100.00